sensor_id;sensor_type;location;lat;lon;timestamp;P1;durP1;ratioP1;P2;durP2;ratioP2
19223;SDS011;9746;47.180;9.776;2023-03-24T09:09:28;0.13;;;0.13;;
19223;SDS011;9746;47.180;9.776;2023-03-24T09:11:55;0.10;;;0.10;;
19223;SDS011;9746;47.180;9.776;2023-03-24T09:14:23;0.10;;;0.10;;
19223;SDS011;9746;47.180;9.776;2023-03-24T09:16:50;0.10;;;0.10;;
19223;SDS011;9746;47.180;9.776;2023-03-24T09:21:56;0.20;;;0.20;;
19223;SDS011;9746;47.180;9.776;2023-03-24T09:27:34;0.10;;;0.10;;
19223;SDS011;9746;47.180;9.776;2023-03-24T09:30:02;0.20;;;0.20;;
19223;SDS011;9746;47.180;9.776;2023-03-24T09:32:31;0.20;;;0.20;;
19223;SDS011;9746;47.180;9.776;2023-03-24T09:34:59;0.20;;;0.20;;
19223;SDS011;9746;47.180;9.776;2023-03-24T09:40:26;0.10;;;0.10;;
19223;SDS011;9746;47.180;9.776;2023-03-24T09:43:06;0.20;;;0.20;;
19223;SDS011;9746;47.180;9.776;2023-03-24T09:45:42;0.10;;;0.10;;
19223;SDS011;9746;47.180;9.776;2023-03-24T09:48:17;0.15;;;0.15;;
19223;SDS011;9746;47.180;9.776;2023-03-24T09:50:52;0.20;;;0.20;;
19223;SDS011;9746;47.180;9.776;2023-03-24T09:53:31;0.20;;;0.20;;
19223;SDS011;9746;47.180;9.776;2023-03-24T09:56:09;0.17;;;0.17;;
19223;SDS011;9746;47.180;9.776;2023-03-24T10:01:27;0.20;;;0.20;;
19223;SDS011;9746;47.180;9.776;2023-03-24T10:06:37;0.20;;;0.20;;
19223;SDS011;9746;47.180;9.776;2023-03-24T10:11:57;0.20;;;0.20;;
19223;SDS011;9746;47.180;9.776;2023-03-24T10:14:51;0.13;;;0.13;;
19223;SDS011;9746;47.180;9.776;2023-03-24T10:17:28;0.10;;;0.10;;
19223;SDS011;9746;47.180;9.776;2023-03-24T10:20:09;0.10;;;0.10;;
19223;SDS011;9746;47.180;9.776;2023-03-24T10:22:55;0.20;;;0.20;;
19223;SDS011;9746;47.180;9.776;2023-03-24T10:25:34;0.10;;;0.10;;
19223;SDS011;9746;47.180;9.776;2023-03-24T10:28:20;0.10;;;0.10;;
19223;SDS011;9746;47.180;9.776;2023-03-24T10:30:54;0.10;;;0.10;;
19223;SDS011;9746;47.180;9.776;2023-03-24T10:33:28;0.10;;;0.10;;
19223;SDS011;9746;47.180;9.776;2023-03-24T10:35:58;0.10;;;0.10;;
19223;SDS011;9746;47.180;9.776;2023-03-24T10:38:30;0.10;;;0.10;;
19223;SDS011;9746;47.180;9.776;2023-03-24T10:40:58;0.10;;;0.10;;
19223;SDS011;9746;47.180;9.776;2023-03-24T10:43:34;0.10;;;0.10;;
19223;SDS011;9746;47.180;9.776;2023-03-24T10:46:04;0.10;;;0.10;;
19223;SDS011;9746;47.180;9.776;2023-03-24T10:48:42;0.10;;;0.10;;
19223;SDS011;9746;47.180;9.776;2023-03-24T10:51:14;0.10;;;0.10;;
19223;SDS011;9746;47.180;9.776;2023-03-24T10:53:44;0.10;;;0.10;;
19223;SDS011;9746;47.180;9.776;2023-03-24T10:56:14;0.10;;;0.10;;
19223;SDS011;9746;47.180;9.776;2023-03-24T10:58:44;0.10;;;0.10;;
19223;SDS011;9746;47.180;9.776;2023-03-24T11:01:21;0.20;;;0.20;;
19223;SDS011;9746;47.180;9.776;2023-03-24T11:07:04;0.10;;;0.10;;
19223;SDS011;9746;47.180;9.776;2023-03-24T11:12:40;0.10;;;0.10;;
19223;SDS011;9746;47.180;9.776;2023-03-24T11:18:33;0.10;;;0.10;;
19223;SDS011;9746;47.180;9.776;2023-03-24T11:21:01;0.10;;;0.10;;
19223;SDS011;9746;47.180;9.776;2023-03-24T11:23:46;0.10;;;0.10;;
19223;SDS011;9746;47.180;9.776;2023-03-24T11:26:15;0.10;;;0.10;;
19223;SDS011;9746;47.180;9.776;2023-03-24T11:31:24;0.10;;;0.10;;
19223;SDS011;9746;47.180;9.776;2023-03-24T11:37:04;0.10;;;0.10;;
19223;SDS011;9746;47.180;9.776;2023-03-24T11:39:41;0.10;;;0.10;;
19223;SDS011;9746;47.180;9.776;2023-03-24T11:42:13;0.10;;;0.10;;
19223;SDS011;9746;47.180;9.776;2023-03-24T11:44:48;0.10;;;0.10;;
19223;SDS011;9746;47.180;9.776;2023-03-24T11:47:23;0.10;;;0.10;;
19223;SDS011;9746;47.180;9.776;2023-03-24T11:50:15;0.10;;;0.10;;
19223;SDS011;9746;47.180;9.776;2023-03-24T11:52:46;0.10;;;0.10;;
19223;SDS011;9746;47.180;9.776;2023-03-24T11:58:42;0.10;;;0.10;;
19223;SDS011;9746;47.180;9.776;2023-03-24T12:01:13;0.10;;;0.10;;
19223;SDS011;9746;47.180;9.776;2023-03-24T12:06:58;0.20;;;0.20;;
19223;SDS011;9746;47.180;9.776;2023-03-24T12:12:23;0.10;;;0.10;;
19223;SDS011;9746;47.180;9.776;2023-03-24T12:15:12;0.10;;;0.10;;
19223;SDS011;9746;47.180;9.776;2023-03-24T12:17:53;0.13;;;0.13;;
19223;SDS011;9746;47.180;9.776;2023-03-24T12:20:31;0.10;;;0.10;;
19223;SDS011;9746;47.180;9.776;2023-03-24T12:23:10;0.10;;;0.10;;
19223;SDS011;9746;47.180;9.776;2023-03-24T12:26:04;0.10;;;0.10;;
19223;SDS011;9746;47.180;9.776;2023-03-24T12:28:56;0.10;;;0.10;;
19223;SDS011;9746;47.180;9.776;2023-03-24T12:31:47;0.10;;;0.10;;
19223;SDS011;9746;47.180;9.776;2023-03-24T12:37:57;0.10;;;0.10;;
19223;SDS011;9746;47.180;9.776;2023-03-24T12:43:53;0.20;;;0.20;;
19223;SDS011;9746;47.180;9.776;2023-03-24T12:46:49;0.20;;;0.20;;
19223;SDS011;9746;47.180;9.776;2023-03-24T12:49:33;0.10;;;0.10;;
19223;SDS011;9746;47.180;9.776;2023-03-24T12:52:22;0.10;;;0.10;;
19223;SDS011;9746;47.180;9.776;2023-03-24T12:55:09;0.10;;;0.10;;
19223;SDS011;9746;47.180;9.776;2023-03-24T12:57:44;0.10;;;0.10;;
19223;SDS011;9746;47.180;9.776;2023-03-24T13:00:26;0.10;;;0.10;;
19223;SDS011;9746;47.180;9.776;2023-03-24T13:02:57;0.20;;;0.20;;
19223;SDS011;9746;47.180;9.776;2023-03-24T13:08:09;0.10;;;0.10;;
19223;SDS011;9746;47.180;9.776;2023-03-24T13:13:27;0.10;;;0.10;;
19223;SDS011;9746;47.180;9.776;2023-03-24T13:16:00;0.10;;;0.10;;
19223;SDS011;9746;47.180;9.776;2023-03-24T13:18:32;0.10;;;0.10;;
19223;SDS011;9746;47.180;9.776;2023-03-24T13:21:17;0.10;;;0.10;;
19223;SDS011;9746;47.180;9.776;2023-03-24T13:23:46;0.10;;;0.10;;
19223;SDS011;9746;47.180;9.776;2023-03-24T13:26:24;0.10;;;0.10;;
19223;SDS011;9746;47.180;9.776;2023-03-24T13:29:16;0.10;;;0.10;;
19223;SDS011;9746;47.180;9.776;2023-03-24T13:31:58;0.10;;;0.10;;
19223;SDS011;9746;47.180;9.776;2023-03-24T13:37:09;0.10;;;0.10;;
19223;SDS011;9746;47.180;9.776;2023-03-24T13:39:41;0.10;;;0.10;;
19223;SDS011;9746;47.180;9.776;2023-03-24T13:42:23;0.20;;;0.20;;
19223;SDS011;9746;47.180;9.776;2023-03-24T13:44:56;0.10;;;0.10;;
19223;SDS011;9746;47.180;9.776;2023-03-24T13:47:27;0.10;;;0.10;;
19223;SDS011;9746;47.180;9.776;2023-03-24T13:50:27;0.10;;;0.10;;
19223;SDS011;9746;47.180;9.776;2023-03-24T13:53:05;0.15;;;0.15;;
19223;SDS011;9746;47.180;9.776;2023-03-24T13:55:46;0.20;;;0.20;;
19223;SDS011;9746;47.180;9.776;2023-03-24T13:58:18;0.20;;;0.20;;
19223;SDS011;9746;47.180;9.776;2023-03-24T14:06:48;0.20;;;0.20;;
19223;SDS011;9746;47.180;9.776;2023-03-24T14:09:29;0.20;;;0.20;;
19223;SDS011;9746;47.180;9.776;2023-03-24T14:12:18;0.20;;;0.20;;
19223;SDS011;9746;47.180;9.776;2023-03-24T14:18:13;0.20;;;0.20;;
19223;SDS011;9746;47.180;9.776;2023-03-24T14:21:20;0.20;;;0.20;;
19223;SDS011;9746;47.180;9.776;2023-03-24T14:23:55;0.20;;;0.20;;
19223;SDS011;9746;47.180;9.776;2023-03-24T14:26:32;0.20;;;0.20;;
19223;SDS011;9746;47.180;9.776;2023-03-24T14:28:59;0.20;;;0.20;;
19223;SDS011;9746;47.180;9.776;2023-03-24T14:31:30;0.20;;;0.20;;
19223;SDS011;9746;47.180;9.776;2023-03-24T14:34:12;0.27;;;0.27;;
19223;SDS011;9746;47.180;9.776;2023-03-24T14:37:04;0.23;;;0.23;;
19223;SDS011;9746;47.180;9.776;2023-03-24T14:39:35;0.30;;;0.30;;
19223;SDS011;9746;47.180;9.776;2023-03-24T14:48:19;0.20;;;0.20;;
19223;SDS011;9746;47.180;9.776;2023-03-24T14:53:51;0.30;;;0.30;;
19223;SDS011;9746;47.180;9.776;2023-03-24T14:59:16;0.20;;;0.20;;
19223;SDS011;9746;47.180;9.776;2023-03-24T15:01:55;0.20;;;0.20;;
19223;SDS011;9746;47.180;9.776;2023-03-24T15:07:05;0.30;;;0.30;;
19223;SDS011;9746;47.180;9.776;2023-03-24T15:09:40;0.30;;;0.30;;
19223;SDS011;9746;47.180;9.776;2023-03-24T15:12:14;0.20;;;0.20;;
19223;SDS011;9746;47.180;9.776;2023-03-24T15:18:17;0.20;;;0.20;;
19223;SDS011;9746;47.180;9.776;2023-03-24T15:20:56;0.20;;;0.20;;
19223;SDS011;9746;47.180;9.776;2023-03-24T15:23:25;0.20;;;0.20;;
19223;SDS011;9746;47.180;9.776;2023-03-24T15:29:03;0.30;;;0.30;;
19223;SDS011;9746;47.180;9.776;2023-03-24T15:31:33;0.20;;;0.20;;
19223;SDS011;9746;47.180;9.776;2023-03-24T15:34:03;0.20;;;0.20;;
19223;SDS011;9746;47.180;9.776;2023-03-24T15:39:15;0.20;;;0.20;;
19223;SDS011;9746;47.180;9.776;2023-03-24T15:44:25;0.20;;;0.20;;
19223;SDS011;9746;47.180;9.776;2023-03-24T15:46:55;0.20;;;0.20;;
19223;SDS011;9746;47.180;9.776;2023-03-24T15:49:29;0.28;;;0.28;;
19223;SDS011;9746;47.180;9.776;2023-03-24T15:52:22;0.30;;;0.30;;
19223;SDS011;9746;47.180;9.776;2023-03-24T15:57:50;0.27;;;0.27;;
19223;SDS011;9746;47.180;9.776;2023-03-24T16:00:25;0.20;;;0.20;;
19223;SDS011;9746;47.180;9.776;2023-03-24T16:02:54;0.20;;;0.20;;
19223;SDS011;9746;47.180;9.776;2023-03-24T16:05:29;0.20;;;0.20;;
19223;SDS011;9746;47.180;9.776;2023-03-24T16:07:58;0.30;;;0.30;;
19223;SDS011;9746;47.180;9.776;2023-03-24T16:10:32;0.20;;;0.20;;
19223;SDS011;9746;47.180;9.776;2023-03-24T16:13:12;0.20;;;0.20;;
19223;SDS011;9746;47.180;9.776;2023-03-24T16:15:56;0.20;;;0.20;;
19223;SDS011;9746;47.180;9.776;2023-03-24T16:18:26;0.20;;;0.20;;
19223;SDS011;9746;47.180;9.776;2023-03-24T16:23:52;0.20;;;0.20;;
19223;SDS011;9746;47.180;9.776;2023-03-24T16:26:21;0.20;;;0.20;;
19223;SDS011;9746;47.180;9.776;2023-03-24T16:28:50;0.20;;;0.20;;
19223;SDS011;9746;47.180;9.776;2023-03-24T16:31:21;0.20;;;0.20;;
19223;SDS011;9746;47.180;9.776;2023-03-24T16:33:51;0.20;;;0.20;;
19223;SDS011;9746;47.180;9.776;2023-03-24T16:39:01;0.20;;;0.20;;
19223;SDS011;9746;47.180;9.776;2023-03-24T16:44:23;0.20;;;0.20;;
19223;SDS011;9746;47.180;9.776;2023-03-24T16:49:55;0.20;;;0.20;;
19223;SDS011;9746;47.180;9.776;2023-03-24T16:52:24;0.20;;;0.20;;
19223;SDS011;9746;47.180;9.776;2023-03-24T16:54:51;0.20;;;0.20;;
19223;SDS011;9746;47.180;9.776;2023-03-24T17:00:34;0.20;;;0.20;;
19223;SDS011;9746;47.180;9.776;2023-03-24T17:03:03;0.20;;;0.20;;
19223;SDS011;9746;47.180;9.776;2023-03-24T17:05:42;0.20;;;0.20;;
19223;SDS011;9746;47.180;9.776;2023-03-24T17:08:12;0.20;;;0.20;;
19223;SDS011;9746;47.180;9.776;2023-03-24T17:10:55;0.20;;;0.20;;
19223;SDS011;9746;47.180;9.776;2023-03-24T17:13:23;0.20;;;0.20;;
19223;SDS011;9746;47.180;9.776;2023-03-24T17:18:37;0.20;;;0.20;;
19223;SDS011;9746;47.180;9.776;2023-03-24T17:23:47;0.20;;;0.20;;
19223;SDS011;9746;47.180;9.776;2023-03-24T17:29:07;0.20;;;0.20;;
19223;SDS011;9746;47.180;9.776;2023-03-24T17:31:53;0.30;;;0.30;;
19223;SDS011;9746;47.180;9.776;2023-03-24T17:34:21;0.30;;;0.30;;
19223;SDS011;9746;47.180;9.776;2023-03-24T17:37:03;0.30;;;0.30;;
19223;SDS011;9746;47.180;9.776;2023-03-24T17:39:31;0.30;;;0.30;;
19223;SDS011;9746;47.180;9.776;2023-03-24T17:42:17;0.20;;;0.20;;
19223;SDS011;9746;47.180;9.776;2023-03-24T17:44:44;0.28;;;0.28;;
19223;SDS011;9746;47.180;9.776;2023-03-24T17:50:00;0.30;;;0.30;;
19223;SDS011;9746;47.180;9.776;2023-03-24T17:55:09;0.22;;;0.22;;
19223;SDS011;9746;47.180;9.776;2023-03-24T18:00:16;0.30;;;0.30;;
19223;SDS011;9746;47.180;9.776;2023-03-24T18:02:45;0.20;;;0.20;;
19223;SDS011;9746;47.180;9.776;2023-03-24T18:05:12;0.20;;;0.20;;
19223;SDS011;9746;47.180;9.776;2023-03-24T18:07:41;0.20;;;0.20;;
19223;SDS011;9746;47.180;9.776;2023-03-24T18:10:09;0.20;;;0.20;;
19223;SDS011;9746;47.180;9.776;2023-03-24T18:12:52;0.20;;;0.20;;
19223;SDS011;9746;47.180;9.776;2023-03-24T18:15:20;0.30;;;0.30;;
19223;SDS011;9746;47.180;9.776;2023-03-24T18:23:58;0.30;;;0.30;;
19223;SDS011;9746;47.180;9.776;2023-03-24T18:26:32;0.20;;;0.20;;
19223;SDS011;9746;47.180;9.776;2023-03-24T18:29:00;0.20;;;0.20;;
19223;SDS011;9746;47.180;9.776;2023-03-24T18:34:01;0.30;;;0.30;;
19223;SDS011;9746;47.180;9.776;2023-03-24T18:36:29;0.23;;;0.23;;
19223;SDS011;9746;47.180;9.776;2023-03-24T18:39:03;0.20;;;0.20;;
19223;SDS011;9746;47.180;9.776;2023-03-24T18:41:35;0.27;;;0.27;;
19223;SDS011;9746;47.180;9.776;2023-03-24T18:44:04;0.30;;;0.30;;
19223;SDS011;9746;47.180;9.776;2023-03-24T18:46:41;0.20;;;0.20;;
19223;SDS011;9746;47.180;9.776;2023-03-24T18:49:10;0.20;;;0.20;;
19223;SDS011;9746;47.180;9.776;2023-03-24T18:51:39;0.30;;;0.30;;
19223;SDS011;9746;47.180;9.776;2023-03-24T18:54:10;0.20;;;0.20;;
19223;SDS011;9746;47.180;9.776;2023-03-24T18:59:26;0.30;;;0.30;;
19223;SDS011;9746;47.180;9.776;2023-03-24T19:01:55;0.30;;;0.30;;
19223;SDS011;9746;47.180;9.776;2023-03-24T19:04:24;0.20;;;0.20;;
19223;SDS011;9746;47.180;9.776;2023-03-24T19:06:53;0.23;;;0.23;;
19223;SDS011;9746;47.180;9.776;2023-03-24T19:09:22;0.20;;;0.20;;
19223;SDS011;9746;47.180;9.776;2023-03-24T19:11:55;0.30;;;0.30;;
19223;SDS011;9746;47.180;9.776;2023-03-24T19:14:22;0.30;;;0.30;;
19223;SDS011;9746;47.180;9.776;2023-03-24T19:16:57;0.30;;;0.30;;
19223;SDS011;9746;47.180;9.776;2023-03-24T19:19:26;0.20;;;0.20;;
19223;SDS011;9746;47.180;9.776;2023-03-24T19:21:56;0.20;;;0.20;;
19223;SDS011;9746;47.180;9.776;2023-03-24T19:24:25;0.30;;;0.30;;
19223;SDS011;9746;47.180;9.776;2023-03-24T19:26:53;0.20;;;0.20;;
19223;SDS011;9746;47.180;9.776;2023-03-24T19:29:21;0.30;;;0.30;;
19223;SDS011;9746;47.180;9.776;2023-03-24T19:31:50;0.20;;;0.20;;
19223;SDS011;9746;47.180;9.776;2023-03-24T19:34:18;0.20;;;0.20;;
19223;SDS011;9746;47.180;9.776;2023-03-24T19:36:45;0.20;;;0.20;;
19223;SDS011;9746;47.180;9.776;2023-03-24T19:39:12;0.20;;;0.20;;
19223;SDS011;9746;47.180;9.776;2023-03-24T19:41:43;0.30;;;0.30;;
19223;SDS011;9746;47.180;9.776;2023-03-24T19:44:10;0.20;;;0.20;;
19223;SDS011;9746;47.180;9.776;2023-03-24T19:46:38;0.30;;;0.30;;
19223;SDS011;9746;47.180;9.776;2023-03-24T19:49:06;0.20;;;0.20;;
19223;SDS011;9746;47.180;9.776;2023-03-24T19:51:34;0.20;;;0.20;;
19223;SDS011;9746;47.180;9.776;2023-03-24T19:54:01;0.20;;;0.20;;
19223;SDS011;9746;47.180;9.776;2023-03-24T19:56:29;0.27;;;0.27;;
19223;SDS011;9746;47.180;9.776;2023-03-24T19:58:58;0.30;;;0.30;;
19223;SDS011;9746;47.180;9.776;2023-03-24T20:01:25;0.30;;;0.30;;
19223;SDS011;9746;47.180;9.776;2023-03-24T20:03:58;0.20;;;0.20;;
19223;SDS011;9746;47.180;9.776;2023-03-24T20:06:26;0.20;;;0.20;;
19223;SDS011;9746;47.180;9.776;2023-03-24T20:08:54;0.20;;;0.20;;
19223;SDS011;9746;47.180;9.776;2023-03-24T20:11:22;0.30;;;0.30;;
19223;SDS011;9746;47.180;9.776;2023-03-24T20:16:21;0.23;;;0.23;;
19223;SDS011;9746;47.180;9.776;2023-03-24T20:18:49;0.30;;;0.30;;
19223;SDS011;9746;47.180;9.776;2023-03-24T20:21:17;0.20;;;0.20;;
19223;SDS011;9746;47.180;9.776;2023-03-24T20:23:48;0.20;;;0.20;;
19223;SDS011;9746;47.180;9.776;2023-03-24T20:26:17;0.20;;;0.20;;
